createdAt,value
2018-08-19T00:00:55.761Z,99.90
2018-08-19T00:05:56.252Z,99.90
2018-08-19T00:08:26.831Z,99.90
2018-08-19T00:13:31.533Z,99.90
2018-08-19T00:16:02.442Z,99.90
2018-08-19T00:18:33.278Z,99.90
2018-08-19T00:21:03.880Z,99.90
2018-08-19T00:26:09.344Z,99.90
2018-08-19T00:31:09.456Z,99.90
2018-08-19T00:33:39.947Z,99.90
2018-08-19T00:36:25.105Z,99.90
2018-08-19T00:38:56.400Z,99.90
2018-08-19T00:41:27.119Z,99.90
2018-08-19T00:43:57.714Z,99.90
2018-08-19T00:46:33.508Z,99.90
2018-08-19T00:49:03.964Z,99.90
2018-08-19T00:56:33.636Z,99.90
2018-08-19T00:59:04.672Z,99.90
2018-08-19T01:01:37.289Z,99.90
2018-08-19T01:04:10.853Z,99.90
2018-08-19T01:06:46.605Z,99.90
2018-08-19T01:09:16.905Z,99.90
2018-08-19T01:11:47.462Z,99.90
2018-08-19T01:14:17.976Z,99.90
2018-08-19T01:16:48.797Z,99.90
2018-08-19T01:19:19.821Z,99.90
2018-08-19T01:24:20.925Z,99.90
2018-08-19T01:26:51.536Z,99.90
2018-08-19T01:29:47.988Z,99.90
2018-08-19T01:32:18.576Z,99.90
2018-08-19T01:34:49.088Z,99.90
2018-08-19T01:37:19.520Z,99.90
2018-08-19T01:39:49.926Z,99.90
2018-08-19T01:42:20.372Z,99.90
2018-08-19T01:44:50.834Z,99.90
2018-08-19T01:47:21.328Z,99.90
2018-08-19T01:49:51.942Z,99.90
2018-08-19T01:52:22.517Z,99.90
2018-08-19T01:54:52.832Z,99.90
2018-08-19T01:59:53.001Z,99.90
2018-08-19T02:02:23.429Z,99.90
2018-08-19T02:04:55.860Z,99.90
2018-08-19T02:07:26.848Z,99.90
2018-08-19T02:10:05.595Z,99.90
2018-08-19T02:12:38.401Z,99.90
2018-08-19T02:17:45.384Z,99.90
2018-08-19T02:20:15.969Z,99.90
2018-08-19T02:22:52.340Z,99.90
2018-08-19T02:25:22.847Z,99.90
2018-08-19T02:27:53.293Z,99.90
2018-08-19T02:30:23.892Z,99.90
2018-08-19T02:35:24.264Z,99.90
2018-08-19T02:37:54.782Z,99.90
2018-08-19T02:40:32.104Z,99.90
2018-08-19T02:43:02.580Z,99.90
2018-08-19T02:48:02.769Z,99.90
2018-08-19T02:50:33.582Z,99.90
2018-08-19T02:53:04.224Z,99.90
2018-08-19T02:55:34.857Z,99.90
2018-08-19T02:58:10.448Z,99.90
2018-08-19T03:00:41.020Z,99.90
2018-08-19T03:03:11.521Z,99.90
2018-08-19T03:05:45.968Z,99.90
2018-08-19T03:08:16.483Z,99.90
2018-08-19T03:10:47.128Z,99.90
2018-08-19T03:13:17.500Z,99.90
2018-08-19T03:15:47.905Z,99.90
2018-08-19T03:18:18.821Z,99.90
2018-08-19T03:20:49.651Z,99.90
2018-08-19T03:23:20.205Z,99.90
2018-08-19T03:25:50.597Z,99.90
2018-08-19T03:28:21.113Z,99.90
2018-08-19T03:30:56.580Z,99.90
2018-08-19T03:33:27.057Z,99.90
2018-08-19T03:35:57.608Z,99.90
2018-08-19T03:40:58.677Z,99.90
2018-08-19T03:43:29.098Z,99.90
2018-08-19T03:48:33.110Z,99.90
2018-08-19T03:53:33.665Z,99.90
2018-08-19T03:58:33.637Z,99.90
2018-08-19T04:01:04.224Z,99.90
2018-08-19T04:08:48.540Z,99.90
2018-08-19T04:11:19.169Z,99.90
2018-08-19T04:13:49.549Z,99.90
2018-08-19T04:16:20.269Z,99.90
2018-08-19T04:18:55.571Z,99.90
2018-08-19T04:21:26.156Z,99.90
2018-08-19T04:23:56.596Z,99.90
2018-08-19T04:28:56.837Z,99.90
2018-08-19T04:33:57.060Z,99.90
2018-08-19T04:36:27.638Z,99.90
2018-08-19T04:38:58.673Z,99.90
2018-08-19T04:41:29.480Z,99.90
2018-08-19T04:48:59.611Z,99.90
2018-08-19T04:51:30.161Z,99.90
2018-08-19T05:01:32.209Z,99.90
2018-08-19T05:04:02.592Z,99.90
2018-08-19T05:09:02.939Z,99.90
2018-08-19T05:14:02.841Z,99.90
2018-08-19T05:16:33.433Z,99.90
2018-08-19T05:19:05.341Z,99.90
2018-08-19T05:21:35.910Z,99.90
2018-08-19T05:24:06.296Z,99.90
2018-08-19T05:26:36.881Z,99.90
2018-08-19T05:29:09.379Z,99.90
2018-08-19T05:31:52.987Z,99.90
2018-08-19T05:34:28.417Z,99.90
2018-08-19T05:36:59.012Z,99.90
2018-08-19T05:39:29.753Z,99.90
2018-08-19T05:42:09.669Z,99.90
2018-08-19T05:44:40.924Z,99.90
2018-08-19T05:47:13.785Z,99.90
2018-08-19T05:49:45.368Z,99.90
2018-08-19T05:52:24.152Z,99.90
2018-08-19T05:54:59.725Z,99.90
2018-08-19T05:57:32.458Z,99.90
2018-08-19T06:00:07.957Z,99.90
2018-08-19T06:02:44.041Z,99.90
2018-08-19T06:05:14.571Z,99.90
2018-08-19T06:07:44.833Z,99.90
2018-08-19T06:10:15.317Z,99.90
2018-08-19T06:12:45.860Z,99.90
2018-08-19T06:17:46.257Z,99.90
2018-08-19T06:20:16.689Z,99.90
2018-08-19T06:22:47.059Z,99.90
2018-08-19T06:27:48.122Z,99.90
2018-08-19T06:30:19.832Z,99.90
2018-08-19T06:32:50.323Z,99.90
2018-08-19T06:35:20.901Z,99.90
2018-08-19T06:37:51.456Z,99.90
2018-08-19T06:42:52.816Z,99.70
2018-08-19T06:50:33.957Z,98.00
2018-08-19T06:53:04.613Z,98.00
2018-08-19T06:55:34.967Z,97.40
2018-08-19T06:58:05.443Z,95.90
2018-08-19T07:00:36.211Z,94.70
2018-08-19T07:03:07.043Z,93.70
2018-08-19T07:05:37.591Z,91.30
2018-08-19T07:08:08.137Z,89.50
2018-08-19T07:10:39.573Z,88.70
2018-08-19T07:13:12.996Z,88.50
2018-08-19T07:15:44.595Z,86.80
2018-08-19T07:18:16.073Z,85.70
2018-08-19T07:20:46.605Z,84.40
2018-08-19T07:23:17.076Z,86.10
2018-08-19T07:25:47.527Z,83.80
2018-08-19T07:28:18.720Z,84.70
2018-08-19T07:33:18.852Z,83.70
2018-08-19T07:35:49.293Z,84.20
2018-08-19T07:38:19.864Z,85.20
2018-08-19T07:40:50.276Z,84.70
2018-08-19T07:43:20.899Z,85.30
2018-08-19T07:45:51.500Z,85.20
2018-08-19T07:50:52.075Z,85.10
2018-08-19T07:53:22.444Z,83.90
2018-08-19T07:55:52.881Z,84.10
2018-08-19T07:58:32.776Z,82.30
2018-08-19T08:01:03.377Z,84.50
2018-08-19T08:03:33.833Z,82.40
2018-08-19T08:06:04.401Z,81.90
2018-08-19T08:08:34.962Z,82.40
2018-08-19T08:13:35.438Z,81.60
2018-08-19T08:16:09.444Z,82.50
2018-08-19T08:18:40.046Z,80.10
2018-08-19T08:23:44.824Z,80.10
2018-08-19T08:26:15.402Z,80.20
2018-08-19T08:28:53.045Z,79.30
2018-08-19T08:31:30.290Z,78.80
2018-08-19T08:34:00.874Z,78.10
2018-08-19T08:36:31.245Z,79.10
2018-08-19T08:39:01.693Z,78.50
2018-08-19T08:41:32.013Z,79.40
2018-08-19T08:46:32.357Z,78.70
2018-08-19T08:49:02.804Z,79.70
2018-08-19T08:51:33.338Z,78.70
2018-08-19T08:54:04.073Z,78.40
2018-08-19T08:56:34.693Z,79.50
2018-08-19T08:59:05.345Z,79.10
2018-08-19T09:01:35.918Z,77.40
2018-08-19T09:06:36.174Z,76.80
2018-08-19T09:11:37.876Z,75.80
2018-08-19T09:14:08.426Z,74.40
2018-08-19T09:16:39.114Z,74.70
2018-08-19T09:19:09.574Z,74.90
2018-08-19T09:21:40.143Z,73.50
2018-08-19T09:24:10.721Z,73.60
2018-08-19T09:26:41.229Z,73.80
2018-08-19T09:29:11.651Z,73.20
2018-08-19T09:34:11.710Z,72.60
2018-08-19T09:36:42.321Z,72.80
2018-08-19T09:39:13.024Z,71.20
2018-08-19T09:41:43.577Z,72.10
2018-08-19T09:46:43.933Z,71.20
2018-08-19T09:49:14.502Z,71.50
2018-08-19T09:51:44.990Z,71.90
2018-08-19T09:54:20.445Z,69.60
2018-08-19T09:56:51.061Z,69.40
2018-08-19T09:59:21.613Z,69.80
2018-08-19T10:01:52.214Z,70.10
2018-08-19T10:07:00.591Z,69.10
2018-08-19T10:09:31.414Z,68.70
2018-08-19T10:12:02.034Z,71.60
2018-08-19T10:14:32.466Z,69.10
2018-08-19T10:17:02.816Z,69.40
2018-08-19T10:19:33.415Z,67.20
2018-08-19T10:22:03.972Z,65.80
2018-08-19T10:24:35.389Z,65.30
2018-08-19T10:27:08.921Z,66.30
2018-08-19T10:29:39.520Z,67.20
2018-08-19T10:32:10.139Z,66.10
2018-08-19T10:34:40.553Z,67.10
2018-08-19T10:42:21.180Z,64.10
2018-08-19T10:44:52.834Z,65.90
2018-08-19T10:47:23.409Z,64.20
2018-08-19T10:49:59.534Z,63.90
2018-08-19T10:52:31.446Z,63.90
2018-08-19T10:57:32.505Z,64.10
2018-08-19T11:05:02.256Z,64.50
2018-08-19T11:10:20.360Z,67.30
2018-08-19T11:12:54.069Z,70.50
2018-08-19T11:15:36.425Z,65.80
2018-08-19T11:20:46.559Z,58.00
2018-08-19T11:23:19.009Z,57.20
2018-08-19T11:25:50.125Z,56.00
2018-08-19T11:28:44.597Z,58.40
2018-08-19T11:33:51.024Z,56.50
2018-08-19T11:36:22.123Z,56.50
2018-08-19T11:38:53.806Z,55.70
2018-08-19T11:41:24.413Z,56.00
2018-08-19T11:46:24.879Z,55.80
2018-08-19T11:49:00.162Z,55.50
2018-08-19T11:51:42.985Z,56.00
2018-08-19T11:54:14.962Z,56.80
2018-08-19T11:57:21.164Z,55.10
2018-08-19T11:59:51.844Z,52.00
2018-08-19T12:02:23.761Z,52.10
2018-08-19T12:04:54.244Z,50.90
2018-08-19T12:07:25.141Z,52.00
2018-08-19T12:12:49.940Z,52.50
2018-08-19T12:15:20.732Z,51.80
2018-08-19T12:17:51.049Z,50.60
2018-08-19T12:20:26.332Z,51.90
2018-08-19T12:22:56.814Z,50.60
2018-08-19T12:25:27.249Z,51.00
2018-08-19T12:27:57.662Z,51.50
2018-08-19T12:30:31.174Z,51.80
2018-08-19T12:33:12.088Z,49.90
2018-08-19T12:35:42.619Z,47.80
2018-08-19T12:38:13.122Z,45.40
2018-08-19T12:40:46.886Z,48.10
2018-08-19T12:43:17.717Z,47.70
2018-08-19T12:45:48.250Z,49.50
2018-08-19T12:48:18.617Z,48.00
2018-08-19T12:53:24.753Z,49.30
2018-08-19T12:55:55.276Z,46.70
2018-08-19T12:58:25.729Z,47.10
2018-08-19T13:00:55.927Z,45.90
2018-08-19T13:03:29.263Z,47.20
2018-08-19T13:06:03.098Z,48.30
2018-08-19T13:08:33.414Z,48.20
2018-08-19T13:11:05.759Z,47.20
2018-08-19T13:16:05.819Z,43.90
2018-08-19T13:18:40.289Z,47.80
2018-08-19T13:21:16.661Z,46.10
2018-08-19T13:23:47.338Z,45.30
2018-08-19T13:26:17.927Z,48.50
2018-08-19T13:28:55.461Z,47.60
2018-08-19T13:31:31.214Z,40.70
2018-08-19T13:34:01.626Z,39.40
2018-08-19T13:36:32.182Z,41.40
2018-08-19T13:39:02.799Z,44.10
2018-08-19T13:41:33.507Z,44.50
2018-08-19T13:46:33.669Z,46.60
2018-08-19T13:49:03.874Z,46.40
2018-08-19T13:51:34.469Z,46.30
2018-08-19T13:54:04.906Z,46.50
2018-08-19T13:56:35.313Z,45.80
2018-08-19T13:59:05.987Z,46.10
2018-08-19T14:01:36.368Z,44.00
2018-08-19T14:04:06.974Z,42.70
2018-08-19T14:06:37.181Z,43.90
2018-08-19T14:09:09.226Z,45.30
2018-08-19T14:11:39.993Z,44.00
2018-08-19T14:14:11.183Z,42.40
2018-08-19T14:16:41.456Z,42.10
2018-08-19T14:19:11.963Z,41.30
2018-08-19T14:21:42.338Z,44.40
2018-08-19T14:24:12.817Z,38.70
2018-08-19T14:26:43.151Z,38.60
2018-08-19T14:29:13.629Z,41.40
2018-08-19T14:31:44.067Z,39.90
2018-08-19T14:34:14.498Z,38.70
2018-08-19T14:39:14.658Z,39.10
2018-08-19T14:41:44.977Z,40.60
2018-08-19T14:46:45.031Z,40.30
2018-08-19T14:49:15.538Z,37.60
2018-08-19T14:52:02.681Z,38.00
2018-08-19T14:54:33.089Z,40.40
2018-08-19T14:57:03.409Z,40.30
2018-08-19T14:59:34.106Z,40.90
2018-08-19T15:02:04.647Z,41.60
2018-08-19T15:04:35.093Z,40.90
2018-08-19T15:07:05.630Z,40.20
2018-08-19T15:09:35.933Z,39.90
2018-08-19T15:12:15.196Z,40.10
2018-08-19T15:14:45.709Z,44.40
2018-08-19T15:17:16.026Z,39.10
2018-08-19T15:19:48.554Z,38.50
2018-08-19T15:22:18.994Z,38.80
2018-08-19T15:24:49.821Z,39.00
2018-08-19T15:27:20.221Z,38.70
2018-08-19T15:29:52.186Z,38.30
2018-08-19T15:32:24.903Z,39.40
2018-08-19T15:34:55.340Z,39.60
2018-08-19T15:37:25.777Z,38.60
2018-08-19T15:42:25.818Z,39.30
2018-08-19T15:47:26.045Z,37.10
2018-08-19T15:50:09.308Z,37.50
2018-08-19T15:52:39.836Z,37.50
2018-08-19T15:55:10.454Z,40.50
2018-08-19T15:57:40.698Z,37.20
2018-08-19T16:00:11.071Z,37.80
2018-08-19T16:02:41.811Z,38.30
2018-08-19T16:05:16.718Z,39.20
2018-08-19T16:07:47.582Z,39.60
2018-08-19T16:12:50.041Z,40.10
2018-08-19T16:15:27.911Z,41.00
2018-08-19T16:17:58.886Z,41.70
2018-08-19T16:20:29.465Z,41.70
2018-08-19T16:22:59.854Z,42.20
2018-08-19T16:25:30.311Z,42.80
2018-08-19T16:28:00.793Z,43.10
2018-08-19T16:30:31.370Z,44.20
2018-08-19T16:33:01.920Z,43.80
2018-08-19T16:35:32.343Z,43.40
2018-08-19T16:38:02.906Z,43.60
2018-08-19T16:40:33.510Z,43.70
2018-08-19T16:43:03.971Z,47.20
2018-08-19T16:45:34.303Z,43.20
2018-08-19T16:48:04.721Z,42.60
2018-08-19T16:50:35.381Z,44.30
2018-08-19T16:53:05.773Z,42.50
2018-08-19T16:55:36.382Z,42.60
2018-08-19T16:58:06.763Z,43.60
2018-08-19T17:03:21.451Z,46.40
2018-08-19T17:08:21.445Z,48.50
2018-08-19T17:10:51.882Z,49.40
2018-08-19T17:13:22.330Z,48.40
2018-08-19T17:20:51.941Z,48.40
2018-08-19T17:23:23.558Z,48.40
2018-08-19T17:25:54.393Z,48.80
2018-08-19T17:28:25.977Z,49.00
2018-08-19T17:30:56.366Z,49.50
2018-08-19T17:33:30.717Z,49.80
2018-08-19T17:36:01.211Z,50.40
2018-08-19T17:38:34.929Z,51.00
2018-08-19T17:41:05.706Z,52.20
2018-08-19T17:43:42.309Z,52.70
2018-08-19T17:46:14.274Z,53.40
2018-08-19T17:48:45.367Z,54.50
2018-08-19T17:51:27.117Z,55.60
2018-08-19T17:53:57.618Z,56.60
2018-08-19T17:56:35.500Z,57.80
2018-08-19T17:59:06.711Z,59.00
2018-08-19T18:01:43.705Z,60.10
2018-08-19T18:04:16.661Z,61.80
2018-08-19T18:06:54.084Z,62.60
2018-08-19T18:09:24.514Z,63.00
2018-08-19T18:12:09.444Z,64.20
2018-08-19T18:14:40.079Z,65.40
2018-08-19T18:17:11.562Z,67.10
2018-08-19T18:19:42.006Z,67.40
2018-08-19T18:22:12.579Z,68.70
2018-08-19T18:24:48.228Z,68.40
2018-08-19T18:27:19.063Z,70.10
2018-08-19T18:29:50.702Z,69.90
2018-08-19T18:32:21.826Z,70.60
2018-08-19T18:37:21.849Z,73.00
2018-08-19T18:39:53.550Z,74.00
2018-08-19T18:42:35.138Z,74.20
2018-08-19T18:45:10.916Z,74.90
2018-08-19T18:47:51.998Z,76.00
2018-08-19T18:50:26.683Z,77.10
2018-08-19T18:52:57.324Z,77.40
2018-08-19T18:55:28.037Z,76.90
2018-08-19T19:00:28.829Z,77.50
2018-08-19T19:03:00.509Z,77.90
2018-08-19T19:05:33.933Z,78.50
2018-08-19T19:10:44.686Z,78.90
2018-08-19T19:13:38.298Z,79.10
2018-08-19T19:16:08.782Z,79.80
2018-08-19T19:18:40.110Z,80.10
2018-08-19T19:21:13.081Z,80.50
2018-08-19T19:23:45.126Z,80.80
2018-08-19T19:26:15.633Z,80.80
2018-08-19T19:31:17.261Z,81.00
2018-08-19T19:33:47.622Z,81.30
2018-08-19T19:38:55.582Z,81.50
2018-08-19T19:41:28.038Z,82.00
2018-08-19T19:43:58.537Z,82.00
2018-08-19T19:46:28.858Z,82.40
2018-08-19T19:48:59.590Z,82.00
2018-08-19T19:51:30.071Z,82.40
2018-08-19T19:54:00.458Z,82.90
2018-08-19T19:56:30.886Z,82.80
2018-08-19T20:01:30.893Z,84.50
2018-08-19T20:04:02.009Z,85.00
2018-08-19T20:06:32.495Z,85.30
2018-08-19T20:09:03.152Z,85.90
2018-08-19T20:11:33.558Z,86.60
2018-08-19T20:14:04.126Z,87.10
2018-08-19T20:16:34.634Z,87.50
2018-08-19T20:19:05.050Z,88.00
2018-08-19T20:21:36.995Z,88.40
2018-08-19T20:24:07.926Z,88.60
2018-08-19T20:26:38.297Z,88.60
2018-08-19T20:29:08.933Z,88.40
2018-08-19T20:31:39.497Z,89.10
2018-08-19T20:34:09.994Z,89.20
2018-08-19T20:36:40.335Z,88.50
2018-08-19T20:39:10.928Z,89.40
2018-08-19T20:41:41.426Z,89.70
2018-08-19T20:49:15.889Z,89.10
2018-08-19T20:51:46.285Z,89.10
2018-08-19T20:54:16.654Z,89.10
2018-08-19T20:56:47.157Z,89.20
2018-08-19T20:59:23.510Z,89.30
2018-08-19T21:01:54.039Z,89.90
2018-08-19T21:04:24.861Z,90.00
2018-08-19T21:06:55.601Z,90.30
2018-08-19T21:09:26.278Z,90.30
2018-08-19T21:11:56.554Z,90.30
2018-08-19T21:14:27.211Z,90.40
2018-08-19T21:16:57.738Z,90.70
2018-08-19T21:21:58.074Z,91.00
2018-08-19T21:24:28.561Z,91.00
2018-08-19T21:27:01.366Z,91.10
2018-08-19T21:29:32.260Z,91.20
2018-08-19T21:32:02.951Z,91.20
2018-08-19T21:34:33.320Z,91.40
2018-08-19T21:37:03.735Z,91.50
2018-08-19T21:39:34.289Z,91.80
2018-08-19T21:42:04.782Z,91.80
2018-08-19T21:44:35.207Z,91.90
2018-08-19T21:47:06.617Z,92.20
2018-08-19T21:49:37.427Z,92.20
2018-08-19T21:52:07.841Z,92.30
2018-08-19T21:54:38.451Z,92.30
2018-08-19T21:57:08.938Z,92.40
2018-08-19T21:59:39.407Z,92.50
2018-08-19T22:02:13.845Z,92.80
2018-08-19T22:04:44.529Z,92.70
2018-08-19T22:07:14.841Z,93.00
2018-08-19T22:09:45.185Z,93.40
2018-08-19T22:12:15.714Z,93.30
2018-08-19T22:14:46.275Z,93.60
2018-08-19T22:17:16.646Z,93.80
2018-08-19T22:19:47.266Z,93.90
2018-08-19T22:22:18.494Z,94.10
2018-08-19T22:24:49.126Z,94.20
2018-08-19T22:27:19.681Z,94.10
2018-08-19T22:29:50.954Z,94.30
2018-08-19T22:32:21.450Z,94.40
2018-08-19T22:34:51.829Z,94.50
2018-08-19T22:39:52.369Z,94.80
2018-08-19T22:42:23.143Z,95.00
2018-08-19T22:44:53.838Z,95.20
2018-08-19T22:49:54.106Z,95.20
2018-08-19T22:52:25.222Z,95.30
2018-08-19T22:54:57.266Z,95.50
2018-08-19T22:57:28.463Z,95.40
2018-08-19T22:59:58.877Z,95.80
2018-08-19T23:02:30.735Z,96.20
2018-08-19T23:05:01.109Z,96.40
2018-08-19T23:07:31.546Z,96.30
2018-08-19T23:10:01.912Z,96.40
2018-08-19T23:12:32.398Z,96.50
2018-08-19T23:15:13.619Z,96.10
2018-08-19T23:17:44.110Z,95.90
2018-08-19T23:20:14.447Z,95.90
2018-08-19T23:22:44.833Z,96.00
2018-08-19T23:25:15.178Z,96.20
2018-08-19T23:27:45.611Z,96.50
2018-08-19T23:30:16.064Z,96.40
2018-08-19T23:32:46.443Z,96.60
2018-08-19T23:35:16.780Z,96.70
2018-08-19T23:37:47.182Z,96.60
2018-08-19T23:40:17.763Z,96.70
2018-08-19T23:42:48.025Z,96.80
2018-08-19T23:45:18.667Z,96.80
2018-08-19T23:47:49.326Z,96.90
2018-08-19T23:50:19.782Z,97.00
2018-08-19T23:52:50.181Z,97.20
2018-08-19T23:55:20.628Z,97.10
2018-08-19T23:57:51.025Z,97.10
